Аэропорт: Курумоч. Самара

ICAO: UWWW

METAR:
2021-10-23 02:00:00
UWWW 230200Z 22005MPS 8000 NSC 07/05 Q1009 R15/CLRD60 NOSIG RMK QFE745/0994
METAR:
2021-10-22 22:55:00
TAF UWWW 222255Z 2300/2324 23006G12MPS 9999 SCT020 TX13/2311Z TN07/2303Z TEMPO 2303/2314 25010G16MPS FM231400 19003G09MPS 6000 -SHRA BKN016CB